sensor_id;sensor_type;location;lat;lon;timestamp;pressure;altitude;pressure_sealevel;temperature;humidity
58373;BME280;44177;43.356;27.672;2023-04-06T00:00:48;97797.06;;;2.87;79.92
58373;BME280;44177;43.356;27.672;2023-04-06T00:03:14;97795.97;;;2.88;80.14
58373;BME280;44177;43.356;27.672;2023-04-06T00:05:40;97796.44;;;2.90;80.27
58373;BME280;44177;43.356;27.672;2023-04-06T00:08:06;97802.47;;;2.87;80.44
58373;BME280;44177;43.356;27.672;2023-04-06T00:10:31;97797.66;;;2.83;80.38
58373;BME280;44177;43.356;27.672;2023-04-06T00:12:58;97794.97;;;2.83;80.90
58373;BME280;44177;43.356;27.672;2023-04-06T00:15:23;97793.50;;;2.77;80.80
58373;BME280;44177;43.356;27.672;2023-04-06T00:17:49;97805.56;;;2.80;80.81
58373;BME280;44177;43.356;27.672;2023-04-06T00:20:15;97782.97;;;2.67;81.35
58373;BME280;44177;43.356;27.672;2023-04-06T00:22:41;97792.50;;;2.73;82.04
58373;BME280;44177;43.356;27.672;2023-04-06T00:25:08;97792.63;;;2.68;82.71
58373;BME280;44177;43.356;27.672;2023-04-06T00:27:33;97789.06;;;2.59;83.03
58373;BME280;44177;43.356;27.672;2023-04-06T00:29:59;97782.41;;;2.42;83.30
58373;BME280;44177;43.356;27.672;2023-04-06T00:32:24;97788.84;;;2.32;84.10
58373;BME280;44177;43.356;27.672;2023-04-06T00:34:50;97773.91;;;2.26;83.45
58373;BME280;44177;43.356;27.672;2023-04-06T00:37:15;97786.66;;;2.20;83.36
58373;BME280;44177;43.356;27.672;2023-04-06T00:39:41;97782.47;;;2.28;83.41
58373;BME280;44177;43.356;27.672;2023-04-06T00:42:10;97782.56;;;2.23;83.06
58373;BME280;44177;43.356;27.672;2023-04-06T00:44:38;97785.16;;;2.28;83.54
58373;BME280;44177;43.356;27.672;2023-04-06T00:47:04;97783.06;;;2.25;83.50
58373;BME280;44177;43.356;27.672;2023-04-06T00:49:29;97781.66;;;2.28;83.03
58373;BME280;44177;43.356;27.672;2023-04-06T00:51:55;97778.66;;;2.29;82.37
58373;BME280;44177;43.356;27.672;2023-04-06T00:54:20;97787.41;;;2.35;81.82
58373;BME280;44177;43.356;27.672;2023-04-06T00:56:46;97775.88;;;2.34;81.99
58373;BME280;44177;43.356;27.672;2023-04-06T00:59:12;97775.69;;;2.31;81.55
58373;BME280;44177;43.356;27.672;2023-04-06T01:01:37;97770.69;;;2.24;81.83
58373;BME280;44177;43.356;27.672;2023-04-06T01:04:03;97779.25;;;2.40;81.36
58373;BME280;44177;43.356;27.672;2023-04-06T01:06:29;97779.84;;;2.37;80.76
58373;BME280;44177;43.356;27.672;2023-04-06T01:08:54;97773.00;;;2.31;80.45
58373;BME280;44177;43.356;27.672;2023-04-06T01:11:20;97761.84;;;2.24;80.38
58373;BME280;44177;43.356;27.672;2023-04-06T01:13:46;97757.63;;;2.17;79.96
58373;BME280;44177;43.356;27.672;2023-04-06T01:16:11;97757.84;;;2.21;80.57
58373;BME280;44177;43.356;27.672;2023-04-06T01:18:37;97762.63;;;2.10;80.15
58373;BME280;44177;43.356;27.672;2023-04-06T01:21:03;97758.16;;;2.05;80.80
58373;BME280;44177;43.356;27.672;2023-04-06T01:23:29;97730.66;;;1.95;80.88
58373;BME280;44177;43.356;27.672;2023-04-06T01:25:54;97746.41;;;2.01;81.02
58373;BME280;44177;43.356;27.672;2023-04-06T01:28:20;97747.19;;;2.02;81.44
58373;BME280;44177;43.356;27.672;2023-04-06T01:30:45;97747.81;;;1.99;81.33
58373;BME280;44177;43.356;27.672;2023-04-06T01:33:11;97737.06;;;1.85;81.43
58373;BME280;44177;43.356;27.672;2023-04-06T01:35:37;97738.97;;;1.84;82.09
58373;BME280;44177;43.356;27.672;2023-04-06T01:38:02;97746.94;;;1.89;81.82
58373;BME280;44177;43.356;27.672;2023-04-06T01:40:28;97737.25;;;1.88;82.05
58373;BME280;44177;43.356;27.672;2023-04-06T01:42:53;97722.13;;;1.79;82.13
58373;BME280;44177;43.356;27.672;2023-04-06T01:45:19;97733.97;;;1.92;81.76
58373;BME280;44177;43.356;27.672;2023-04-06T01:47:45;97727.69;;;1.96;81.48
58373;BME280;44177;43.356;27.672;2023-04-06T01:50:10;97728.69;;;2.00;81.16
58373;BME280;44177;43.356;27.672;2023-04-06T01:52:37;97732.00;;;1.83;80.97
58373;BME280;44177;43.356;27.672;2023-04-06T01:55:03;97724.13;;;1.73;81.72
58373;BME280;44177;43.356;27.672;2023-04-06T01:57:28;97716.66;;;1.70;81.64
58373;BME280;44177;43.356;27.672;2023-04-06T01:59:54;97709.78;;;1.64;81.75
58373;BME280;44177;43.356;27.672;2023-04-06T02:02:19;97706.13;;;1.60;81.69
58373;BME280;44177;43.356;27.672;2023-04-06T02:04:45;97715.38;;;1.53;81.59
58373;BME280;44177;43.356;27.672;2023-04-06T02:07:10;97710.38;;;1.47;82.08
58373;BME280;44177;43.356;27.672;2023-04-06T02:09:36;97693.66;;;1.36;82.47
58373;BME280;44177;43.356;27.672;2023-04-06T02:12:01;97691.25;;;1.34;82.73
58373;BME280;44177;43.356;27.672;2023-04-06T02:14:27;97716.53;;;1.47;81.97
58373;BME280;44177;43.356;27.672;2023-04-06T02:16:53;97704.19;;;1.46;81.97
58373;BME280;44177;43.356;27.672;2023-04-06T02:19:18;97709.56;;;1.46;82.70
58373;BME280;44177;43.356;27.672;2023-04-06T02:21:44;97673.94;;;1.26;82.14
58373;BME280;44177;43.356;27.672;2023-04-06T02:24:09;97678.53;;;1.26;82.25
58373;BME280;44177;43.356;27.672;2023-04-06T02:26:35;97698.63;;;1.42;82.40
58373;BME280;44177;43.356;27.672;2023-04-06T02:29:00;97691.69;;;1.41;82.02
58373;BME280;44177;43.356;27.672;2023-04-06T02:31:27;97688.69;;;1.43;82.15
58373;BME280;44177;43.356;27.672;2023-04-06T02:33:52;97705.59;;;1.44;82.09
58373;BME280;44177;43.356;27.672;2023-04-06T02:36:18;97715.56;;;1.43;82.21
58373;BME280;44177;43.356;27.672;2023-04-06T02:38:43;97704.91;;;1.38;82.25
58373;BME280;44177;43.356;27.672;2023-04-06T02:41:09;97709.19;;;1.39;82.53
58373;BME280;44177;43.356;27.672;2023-04-06T02:43:35;97705.50;;;1.35;82.13
58373;BME280;44177;43.356;27.672;2023-04-06T02:46:00;97707.69;;;1.33;82.12
58373;BME280;44177;43.356;27.672;2023-04-06T02:48:26;97692.94;;;1.16;82.10
58373;BME280;44177;43.356;27.672;2023-04-06T02:50:51;97710.16;;;1.29;82.53
58373;BME280;44177;43.356;27.672;2023-04-06T02:53:17;97710.38;;;1.33;82.58
58373;BME280;44177;43.356;27.672;2023-04-06T02:55:42;97706.19;;;1.26;82.47
58373;BME280;44177;43.356;27.672;2023-04-06T02:58:08;97715.16;;;1.36;82.57
58373;BME280;44177;43.356;27.672;2023-04-06T03:00:33;97710.38;;;1.33;81.98
58373;BME280;44177;43.356;27.672;2023-04-06T03:02:59;97723.81;;;1.47;81.86
58373;BME280;44177;43.356;27.672;2023-04-06T03:05:24;97714.84;;;1.37;81.66
58373;BME280;44177;43.356;27.672;2023-04-06T03:07:49;97715.75;;;1.47;81.99
58373;BME280;44177;43.356;27.672;2023-04-06T03:10:15;97714.16;;;1.46;81.81
58373;BME280;44177;43.356;27.672;2023-04-06T03:12:40;97714.69;;;1.48;81.45
58373;BME280;44177;43.356;27.672;2023-04-06T03:15:07;97708.47;;;1.47;81.57
58373;BME280;44177;43.356;27.672;2023-04-06T03:17:33;97713.28;;;1.50;81.23
58373;BME280;44177;43.356;27.672;2023-04-06T03:19:58;97710.78;;;1.40;81.73
58373;BME280;44177;43.356;27.672;2023-04-06T03:22:24;97706.81;;;1.51;81.18
58373;BME280;44177;43.356;27.672;2023-04-06T03:24:49;97709.38;;;1.56;81.00
58373;BME280;44177;43.356;27.672;2023-04-06T03:27:15;97711.38;;;1.65;80.61
58373;BME280;44177;43.356;27.672;2023-04-06T03:29:41;97709.00;;;1.63;80.32
58373;BME280;44177;43.356;27.672;2023-04-06T03:32:06;97715.56;;;1.71;80.18
58373;BME280;44177;43.356;27.672;2023-04-06T03:34:32;97713.88;;;1.75;80.02
58373;BME280;44177;43.356;27.672;2023-04-06T03:36:57;97707.59;;;1.80;79.50
58373;BME280;44177;43.356;27.672;2023-04-06T03:39:23;97702.81;;;1.77;79.59
58373;BME280;44177;43.356;27.672;2023-04-06T03:41:48;97704.41;;;1.64;80.13
58373;BME280;44177;43.356;27.672;2023-04-06T03:44:14;97715.16;;;1.78;79.75
58373;BME280;44177;43.356;27.672;2023-04-06T03:46:40;97709.19;;;1.67;79.95
58373;BME280;44177;43.356;27.672;2023-04-06T03:49:05;97704.41;;;1.64;80.05
58373;BME280;44177;43.356;27.672;2023-04-06T03:51:30;97681.13;;;1.45;79.61
58373;BME280;44177;43.356;27.672;2023-04-06T03:53:56;97708.59;;;1.56;80.26
58373;BME280;44177;43.356;27.672;2023-04-06T03:56:21;97696.06;;;1.51;80.17
58373;BME280;44177;43.356;27.672;2023-04-06T03:58:47;97685.09;;;1.48;80.99
58373;BME280;44177;43.356;27.672;2023-04-06T04:01:16;97698.25;;;1.49;80.39
58373;BME280;44177;43.356;27.672;2023-04-06T04:03:43;97685.50;;;1.41;80.60
58373;BME280;44177;43.356;27.672;2023-04-06T04:06:08;97685.88;;;1.34;81.01
58373;BME280;44177;43.356;27.672;2023-04-06T04:08:33;97696.22;;;1.27;81.03
58373;BME280;44177;43.356;27.672;2023-04-06T04:11:00;97699.94;;;1.31;81.38
58373;BME280;44177;43.356;27.672;2023-04-06T04:13:26;97681.50;;;1.24;81.26
58373;BME280;44177;43.356;27.672;2023-04-06T04:15:51;97695.44;;;1.26;81.18
58373;BME280;44177;43.356;27.672;2023-04-06T04:18:18;97693.47;;;1.32;81.14
58373;BME280;44177;43.356;27.672;2023-04-06T04:20:43;97698.03;;;1.32;81.34
58373;BME280;44177;43.356;27.672;2023-04-06T04:23:09;97695.34;;;1.32;81.48
58373;BME280;44177;43.356;27.672;2023-04-06T04:25:35;97712.97;;;1.38;81.97
58373;BME280;44177;43.356;27.672;2023-04-06T04:28:00;97709.69;;;1.41;81.85
58373;BME280;44177;43.356;27.672;2023-04-06T04:30:26;97691.47;;;1.38;81.18
58373;BME280;44177;43.356;27.672;2023-04-06T04:32:51;97712.50;;;1.50;81.48
58373;BME280;44177;43.356;27.672;2023-04-06T04:35:17;97710.97;;;1.57;80.79
58373;BME280;44177;43.356;27.672;2023-04-06T04:37:42;97717.38;;;1.62;80.45
58373;BME280;44177;43.356;27.672;2023-04-06T04:40:08;97712.78;;;1.76;80.48
58373;BME280;44177;43.356;27.672;2023-04-06T04:42:34;97722.72;;;1.89;79.76
58373;BME280;44177;43.356;27.672;2023-04-06T04:45:00;97718.94;;;1.91;79.28
58373;BME280;44177;43.356;27.672;2023-04-06T04:47:25;97722.31;;;1.96;78.66
58373;BME280;44177;43.356;27.672;2023-04-06T04:49:51;97725.69;;;2.02;78.62
58373;BME280;44177;43.356;27.672;2023-04-06T04:52:16;97725.69;;;2.02;78.16
58373;BME280;44177;43.356;27.672;2023-04-06T04:54:42;97737.06;;;1.99;78.39
58373;BME280;44177;43.356;27.672;2023-04-06T04:57:07;97732.19;;;2.01;78.53
58373;BME280;44177;43.356;27.672;2023-04-06T04:59:34;97729.06;;;2.08;77.96
58373;BME280;44177;43.356;27.672;2023-04-06T05:01:59;97729.44;;;2.15;77.69
58373;BME280;44177;43.356;27.672;2023-04-06T05:04:25;97740.63;;;2.08;77.23
58373;BME280;44177;43.356;27.672;2023-04-06T05:07:05;97741.13;;;2.10;77.38
58373;BME280;44177;43.356;27.672;2023-04-06T05:09:31;97735.84;;;2.05;77.89
58373;BME280;44177;43.356;27.672;2023-04-06T05:11:57;97735.13;;;2.13;77.53
58373;BME280;44177;43.356;27.672;2023-04-06T05:14:23;97716.91;;;2.10;78.16
58373;BME280;44177;43.356;27.672;2023-04-06T05:16:49;97737.44;;;2.06;77.79
58373;BME280;44177;43.356;27.672;2023-04-06T05:19:14;97726.47;;;2.16;77.55
58373;BME280;44177;43.356;27.672;2023-04-06T05:21:41;97729.53;;;2.24;77.71
58373;BME280;44177;43.356;27.672;2023-04-06T05:24:06;97728.22;;;2.21;77.22
58373;BME280;44177;43.356;27.672;2023-04-06T05:26:32;97724.16;;;2.24;77.62
58373;BME280;44177;43.356;27.672;2023-04-06T05:28:57;97724.72;;;2.34;77.45
58373;BME280;44177;43.356;27.672;2023-04-06T05:31:23;97702.50;;;2.29;77.53
58373;BME280;44177;43.356;27.672;2023-04-06T05:33:48;97706.06;;;2.38;77.43
58373;BME280;44177;43.356;27.672;2023-04-06T05:36:14;97701.19;;;2.40;77.73
58373;BME280;44177;43.356;27.672;2023-04-06T05:38:40;97702.03;;;2.49;77.86
58373;BME280;44177;43.356;27.672;2023-04-06T05:41:05;97696.28;;;2.42;77.03
58373;BME280;44177;43.356;27.672;2023-04-06T05:43:31;97677.69;;;2.32;77.33
58373;BME280;44177;43.356;27.672;2023-04-06T05:45:56;97683.66;;;2.29;77.85
58373;BME280;44177;43.356;27.672;2023-04-06T05:48:22;97677.19;;;2.30;77.80
58373;BME280;44177;43.356;27.672;2023-04-06T05:50:50;97677.72;;;2.41;77.95
58373;BME280;44177;43.356;27.672;2023-04-06T05:53:16;97667.66;;;2.46;77.46
58373;BME280;44177;43.356;27.672;2023-04-06T05:55:42;97679.56;;;2.54;76.64
58373;BME280;44177;43.356;27.672;2023-04-06T05:58:07;97668.97;;;2.58;77.18
58373;BME280;44177;43.356;27.672;2023-04-06T06:00:33;97681.78;;;2.75;76.13
58373;BME280;44177;43.356;27.672;2023-04-06T06:02:58;97690.75;;;2.93;76.22
58373;BME280;44177;43.356;27.672;2023-04-06T06:05:24;97682.72;;;3.02;75.36
58373;BME280;44177;43.356;27.672;2023-04-06T06:07:49;97673.69;;;3.06;74.65
58373;BME280;44177;43.356;27.672;2023-04-06T06:10:15;97661.09;;;3.24;74.95
58373;BME280;44177;43.356;27.672;2023-04-06T06:12:41;97648.16;;;3.04;74.53
58373;BME280;44177;43.356;27.672;2023-04-06T06:15:06;97668.41;;;3.32;73.91
58373;BME280;44177;43.356;27.672;2023-04-06T06:17:32;97660.53;;;3.45;73.29
58373;BME280;44177;43.356;27.672;2023-04-06T06:19:57;97643.53;;;3.36;72.82
58373;BME280;44177;43.356;27.672;2023-04-06T06:22:23;97662.00;;;3.51;73.76
58373;BME280;44177;43.356;27.672;2023-04-06T06:24:49;97659.16;;;3.65;73.43
58373;BME280;44177;43.356;27.672;2023-04-06T06:27:15;97667.13;;;3.70;73.47
58373;BME280;44177;43.356;27.672;2023-04-06T06:29:41;97662.53;;;3.79;72.28
58373;BME280;44177;43.356;27.672;2023-04-06T06:32:06;97662.38;;;3.85;72.39
58373;BME280;44177;43.356;27.672;2023-04-06T06:34:34;97664.78;;;3.86;72.53
58373;BME280;44177;43.356;27.672;2023-04-06T06:37:00;97678.22;;;3.77;72.24
58373;BME280;44177;43.356;27.672;2023-04-06T06:39:27;97667.16;;;3.88;72.74
58373;BME280;44177;43.356;27.672;2023-04-06T06:41:53;97686.22;;;4.18;72.73
58373;BME280;44177;43.356;27.672;2023-04-06T06:44:20;97667.03;;;4.46;72.13
58373;BME280;44177;43.356;27.672;2023-04-06T06:46:47;97663.13;;;4.90;69.99
58373;BME280;44177;43.356;27.672;2023-04-06T06:49:12;97670.19;;;5.60;67.94
58373;BME280;44177;43.356;27.672;2023-04-06T06:51:39;97668.03;;;5.75;67.95
58373;BME280;44177;43.356;27.672;2023-04-06T06:54:05;97673.88;;;6.15;66.12
58373;BME280;44177;43.356;27.672;2023-04-06T06:56:30;97669.25;;;6.71;65.62
58373;BME280;44177;43.356;27.672;2023-04-06T06:58:56;97668.34;;;7.13;64.58
58373;BME280;44177;43.356;27.672;2023-04-06T07:01:22;97668.94;;;7.31;62.34
58373;BME280;44177;43.356;27.672;2023-04-06T07:03:47;97671.75;;;7.34;62.76
58373;BME280;44177;43.356;27.672;2023-04-06T07:06:13;97687.50;;;7.53;61.56
58373;BME280;44177;43.356;27.672;2023-04-06T07:08:38;97655.06;;;6.86;61.40
58373;BME280;44177;43.356;27.672;2023-04-06T07:11:04;97686.91;;;7.23;61.84
58373;BME280;44177;43.356;27.672;2023-04-06T07:13:29;97679.22;;;7.50;61.51
58373;BME280;44177;43.356;27.672;2023-04-06T07:15:55;97679.34;;;7.41;60.88
58373;BME280;44177;43.356;27.672;2023-04-06T07:18:20;97663.78;;;8.28;61.30
58373;BME280;44177;43.356;27.672;2023-04-06T07:20:46;97672.88;;;8.48;58.61
58373;BME280;44177;43.356;27.672;2023-04-06T07:23:12;97669.25;;;8.44;59.40
58373;BME280;44177;43.356;27.672;2023-04-06T07:25:37;97686.75;;;8.72;57.77
58373;BME280;44177;43.356;27.672;2023-04-06T07:28:03;97687.78;;;8.67;55.83
58373;BME280;44177;43.356;27.672;2023-04-06T07:30:30;97680.19;;;8.89;56.98
58373;BME280;44177;43.356;27.672;2023-04-06T07:32:55;97675.22;;;8.09;58.71
58373;BME280;44177;43.356;27.672;2023-04-06T07:35:22;97685.66;;;8.07;57.75
58373;BME280;44177;43.356;27.672;2023-04-06T07:37:48;97666.41;;;8.12;59.04
58373;BME280;44177;43.356;27.672;2023-04-06T07:40:14;97681.47;;;8.63;58.54
58373;BME280;44177;43.356;27.672;2023-04-06T07:42:39;97680.56;;;8.05;57.91
58373;BME280;44177;43.356;27.672;2023-04-06T07:45:05;97677.00;;;7.64;58.24
58373;BME280;44177;43.356;27.672;2023-04-06T07:47:32;97675.97;;;7.69;59.46
58373;BME280;44177;43.356;27.672;2023-04-06T07:49:57;97686.59;;;7.99;59.75
58373;BME280;44177;43.356;27.672;2023-04-06T07:52:22;97685.63;;;8.19;57.61
58373;BME280;44177;43.356;27.672;2023-04-06T07:54:48;97693.84;;;7.82;57.69
58373;BME280;44177;43.356;27.672;2023-04-06T07:57:14;97694.97;;;7.69;58.84
58373;BME280;44177;43.356;27.672;2023-04-06T07:59:40;97697.88;;;7.39;59.99
58373;BME280;44177;43.356;27.672;2023-04-06T08:02:05;97677.59;;;6.99;60.69
58373;BME280;44177;43.356;27.672;2023-04-06T08:04:31;97697.44;;;6.57;61.95
58373;BME280;44177;43.356;27.672;2023-04-06T08:06:56;97701.41;;;6.60;63.13
58373;BME280;44177;43.356;27.672;2023-04-06T08:09:22;97709.88;;;6.58;63.10
58373;BME280;44177;43.356;27.672;2023-04-06T08:11:47;97691.69;;;6.38;62.75
58373;BME280;44177;43.356;27.672;2023-04-06T08:14:14;97701.19;;;6.44;63.06
58373;BME280;44177;43.356;27.672;2023-04-06T08:16:41;97699.38;;;6.90;63.10
58373;BME280;44177;43.356;27.672;2023-04-06T08:19:06;97699.34;;;7.36;60.45
58373;BME280;44177;43.356;27.672;2023-04-06T08:21:35;97696.31;;;7.87;60.31
58373;BME280;44177;43.356;27.672;2023-04-06T08:24:01;97692.25;;;8.59;58.48
58373;BME280;44177;43.356;27.672;2023-04-06T08:26:27;97690.47;;;8.79;56.10
58373;BME280;44177;43.356;27.672;2023-04-06T08:28:53;97686.69;;;8.02;56.75
58373;BME280;44177;43.356;27.672;2023-04-06T08:31:19;97692.59;;;7.67;58.73
58373;BME280;44177;43.356;27.672;2023-04-06T08:33:44;97687.13;;;8.17;58.58
58373;BME280;44177;43.356;27.672;2023-04-06T08:36:14;97700.53;;;8.38;57.29
58373;BME280;44177;43.356;27.672;2023-04-06T08:38:40;97696.31;;;8.00;58.30
58373;BME280;44177;43.356;27.672;2023-04-06T08:41:10;97696.72;;;8.27;60.23
58373;BME280;44177;43.356;27.672;2023-04-06T08:43:56;97695.06;;;7.97;59.10
58373;BME280;44177;43.356;27.672;2023-04-06T08:46:23;97695.41;;;7.71;58.80
58373;BME280;44177;43.356;27.672;2023-04-06T08:48:54;97687.75;;;7.61;58.72
58373;BME280;44177;43.356;27.672;2023-04-06T08:51:22;97699.03;;;7.50;59.28
58373;BME280;44177;43.356;27.672;2023-04-06T08:53:49;97683.59;;;7.17;60.01
58373;BME280;44177;43.356;27.672;2023-04-06T08:56:15;97697.56;;;7.53;61.35
58373;BME280;44177;43.356;27.672;2023-04-06T08:58:41;97694.75;;;7.74;59.50
58373;BME280;44177;43.356;27.672;2023-04-06T09:01:08;97694.72;;;7.86;59.04
58373;BME280;44177;43.356;27.672;2023-04-06T09:03:38;97687.25;;;7.71;59.79
58373;BME280;44177;43.356;27.672;2023-04-06T09:06:05;97676.41;;;7.46;59.64
58373;BME280;44177;43.356;27.672;2023-04-06T09:08:37;97661.00;;;7.25;60.05
58373;BME280;44177;43.356;27.672;2023-04-06T09:11:03;97696.53;;;7.70;60.25
58373;BME280;44177;43.356;27.672;2023-04-06T09:13:29;97685.69;;;7.57;60.32
58373;BME280;44177;43.356;27.672;2023-04-06T09:16:02;97689.75;;;7.51;62.16
58373;BME280;44177;43.356;27.672;2023-04-06T09:18:31;97693.91;;;7.36;61.88
58373;BME280;44177;43.356;27.672;2023-04-06T09:20:59;97691.78;;;7.42;61.53
58373;BME280;44177;43.356;27.672;2023-04-06T09:23:25;97685.00;;;7.48;61.88
58373;BME280;44177;43.356;27.672;2023-04-06T09:25:50;97684.09;;;7.44;61.42
58373;BME280;44177;43.356;27.672;2023-04-06T09:28:16;97697.78;;;7.60;58.82
58373;BME280;44177;43.356;27.672;2023-04-06T09:30:48;97680.59;;;7.68;61.00
58373;BME280;44177;43.356;27.672;2023-04-06T09:33:23;97695.28;;;7.30;60.90
58373;BME280;44177;43.356;27.672;2023-04-06T09:35:50;97688.38;;;7.33;61.57
58373;BME280;44177;43.356;27.672;2023-04-06T09:38:15;97691.81;;;7.67;60.25
58373;BME280;44177;43.356;27.672;2023-04-06T09:40:49;97688.06;;;7.71;61.15
58373;BME280;44177;43.356;27.672;2023-04-06T09:43:24;97688.84;;;7.72;60.05
58373;BME280;44177;43.356;27.672;2023-04-06T09:45:50;97684.78;;;7.78;61.52
58373;BME280;44177;43.356;27.672;2023-04-06T09:48:16;97684.91;;;7.69;62.43
58373;BME280;44177;43.356;27.672;2023-04-06T09:50:42;97687.72;;;7.73;60.46
58373;BME280;44177;43.356;27.672;2023-04-06T09:53:08;97694.28;;;7.47;61.34
58373;BME280;44177;43.356;27.672;2023-04-06T09:55:40;97704.69;;;7.57;61.55
58373;BME280;44177;43.356;27.672;2023-04-06T09:58:10;97702.88;;;7.62;59.88
58373;BME280;44177;43.356;27.672;2023-04-06T10:01:15;97697.47;;;7.74;60.63
58373;BME280;44177;43.356;27.672;2023-04-06T10:06:17;97694.41;;;7.75;60.51
58373;BME280;44177;43.356;27.672;2023-04-06T10:08:47;97691.69;;;7.88;60.05
58373;BME280;44177;43.356;27.672;2023-04-06T10:11:14;97685.22;;;8.05;60.71
58373;BME280;44177;43.356;27.672;2023-04-06T10:13:41;97688.72;;;8.05;59.81
58373;BME280;44177;43.356;27.672;2023-04-06T10:16:07;97686.09;;;8.21;58.45
58373;BME280;44177;43.356;27.672;2023-04-06T10:18:33;97689.16;;;8.61;58.58
58373;BME280;44177;43.356;27.672;2023-04-06T10:21:14;97681.66;;;8.70;58.47
58373;BME280;44177;43.356;27.672;2023-04-06T10:23:44;97685.50;;;8.69;58.26
58373;BME280;44177;43.356;27.672;2023-04-06T10:26:13;97694.13;;;8.71;57.26
58373;BME280;44177;43.356;27.672;2023-04-06T10:28:41;97681.72;;;8.45;57.80
58373;BME280;44177;43.356;27.672;2023-04-06T10:31:06;97694.13;;;8.18;57.95
58373;BME280;44177;43.356;27.672;2023-04-06T10:33:32;97687.78;;;8.14;58.15
58373;BME280;44177;43.356;27.672;2023-04-06T10:35:58;97678.75;;;8.10;58.75
58373;BME280;44177;43.356;27.672;2023-04-06T10:38:35;97682.69;;;8.25;60.32
58373;BME280;44177;43.356;27.672;2023-04-06T10:41:05;97687.59;;;7.94;59.18
58373;BME280;44177;43.356;27.672;2023-04-06T10:43:34;97685.88;;;8.14;59.95
58373;BME280;44177;43.356;27.672;2023-04-06T10:46:03;97681.13;;;8.11;60.80
58373;BME280;44177;43.356;27.672;2023-04-06T10:48:41;97697.91;;;7.88;59.96
58373;BME280;44177;43.356;27.672;2023-04-06T10:51:18;97686.59;;;7.62;60.69
58373;BME280;44177;43.356;27.672;2023-04-06T10:53:45;97680.84;;;7.63;60.81
58373;BME280;44177;43.356;27.672;2023-04-06T10:56:16;97674.03;;;7.45;61.13
58373;BME280;44177;43.356;27.672;2023-04-06T10:58:45;97681.75;;;7.55;62.11
58373;BME280;44177;43.356;27.672;2023-04-06T11:01:12;97687.72;;;7.36;61.50
58373;BME280;44177;43.356;27.672;2023-04-06T11:03:44;97690.09;;;7.37;60.95
58373;BME280;44177;43.356;27.672;2023-04-06T11:06:10;97694.06;;;7.52;61.71
58373;BME280;44177;43.356;27.672;2023-04-06T11:08:36;97690.19;;;7.41;61.35
58373;BME280;44177;43.356;27.672;2023-04-06T11:11:11;97686.94;;;7.48;60.86
58373;BME280;44177;43.356;27.672;2023-04-06T11:13:50;97688.19;;;7.75;60.16
58373;BME280;44177;43.356;27.672;2023-04-06T11:16:18;97678.09;;;7.88;61.22
58373;BME280;44177;43.356;27.672;2023-04-06T11:18:54;97676.19;;;7.88;61.13
58373;BME280;44177;43.356;27.672;2023-04-06T11:21:35;97673.00;;;7.86;59.45
58373;BME280;44177;43.356;27.672;2023-04-06T11:29:11;97682.41;;;7.64;59.01
58373;BME280;44177;43.356;27.672;2023-04-06T11:31:41;97672.91;;;7.58;60.78
58373;BME280;44177;43.356;27.672;2023-04-06T11:34:21;97676.28;;;7.67;59.95
58373;BME280;44177;43.356;27.672;2023-04-06T11:36:48;97675.06;;;7.65;61.17
58373;BME280;44177;43.356;27.672;2023-04-06T11:39:20;97668.94;;;7.55;61.02
58373;BME280;44177;43.356;27.672;2023-04-06T11:41:49;97669.63;;;7.40;61.02
58373;BME280;44177;43.356;27.672;2023-04-06T11:44:27;97665.75;;;7.16;61.06
58373;BME280;44177;43.356;27.672;2023-04-06T11:46:53;97664.63;;;7.17;60.91
58373;BME280;44177;43.356;27.672;2023-04-06T11:49:18;97658.19;;;7.09;61.20
58373;BME280;44177;43.356;27.672;2023-04-06T11:51:45;97667.69;;;7.16;60.85
58373;BME280;44177;43.356;27.672;2023-04-06T11:54:11;97657.84;;;7.23;61.75
58373;BME280;44177;43.356;27.672;2023-04-06T11:56:38;97669.63;;;7.27;61.38
58373;BME280;44177;43.356;27.672;2023-04-06T11:59:03;97668.38;;;7.50;60.88
58373;BME280;44177;43.356;27.672;2023-04-06T12:01:29;97655.38;;;7.55;60.21
58373;BME280;44177;43.356;27.672;2023-04-06T12:03:55;97656.16;;;7.43;60.38
58373;BME280;44177;43.356;27.672;2023-04-06T12:06:21;97664.19;;;7.27;59.77
58373;BME280;44177;43.356;27.672;2023-04-06T12:08:46;97660.59;;;7.36;60.24
58373;BME280;44177;43.356;27.672;2023-04-06T12:11:12;97650.84;;;7.47;59.55
58373;BME280;44177;43.356;27.672;2023-04-06T12:13:38;97660.47;;;7.57;60.06
58373;BME280;44177;43.356;27.672;2023-04-06T12:16:04;97649.72;;;7.73;58.93
58373;BME280;44177;43.356;27.672;2023-04-06T12:18:30;97649.44;;;8.03;59.56
58373;BME280;44177;43.356;27.672;2023-04-06T12:20:55;97642.56;;;8.34;57.60
58373;BME280;44177;43.356;27.672;2023-04-06T12:23:21;97655.59;;;8.69;59.30
58373;BME280;44177;43.356;27.672;2023-04-06T12:25:46;97637.69;;;8.68;57.30
58373;BME280;44177;43.356;27.672;2023-04-06T12:28:12;97640.38;;;8.96;56.73
58373;BME280;44177;43.356;27.672;2023-04-06T12:30:38;97648.63;;;9.16;55.23
58373;BME280;44177;43.356;27.672;2023-04-06T12:33:04;97625.31;;;9.15;56.87
58373;BME280;44177;43.356;27.672;2023-04-06T12:35:33;97638.56;;;9.48;55.28
58373;BME280;44177;43.356;27.672;2023-04-06T12:37:58;97641.50;;;9.75;54.10
58373;BME280;44177;43.356;27.672;2023-04-06T12:40:24;97628.63;;;9.92;53.76
58373;BME280;44177;43.356;27.672;2023-04-06T12:42:50;97630.13;;;10.64;53.94
58373;BME280;44177;43.356;27.672;2023-04-06T12:45:16;97625.34;;;11.00;52.23
58373;BME280;44177;43.356;27.672;2023-04-06T12:47:41;97629.09;;;10.92;51.49
58373;BME280;44177;43.356;27.672;2023-04-06T12:50:07;97628.25;;;10.49;51.39
58373;BME280;44177;43.356;27.672;2023-04-06T12:52:33;97629.13;;;10.53;51.14
58373;BME280;44177;43.356;27.672;2023-04-06T12:55:03;97641.41;;;10.07;51.42
58373;BME280;44177;43.356;27.672;2023-04-06T12:57:30;97632.06;;;9.89;52.57
58373;BME280;44177;43.356;27.672;2023-04-06T12:59:56;97630.19;;;9.73;53.45
58373;BME280;44177;43.356;27.672;2023-04-06T13:02:22;97622.25;;;9.68;53.29
58373;BME280;44177;43.356;27.672;2023-04-06T13:04:48;97628.22;;;9.74;52.43